createdAt,value
2023-02-02T00:01:28.310Z,2.90
2023-02-02T00:03:57.175Z,2.93
2023-02-02T00:06:26.756Z,3.20
2023-02-02T00:08:58.154Z,3.57
2023-02-02T00:11:29.825Z,2.77
2023-02-02T00:13:57.963Z,2.83
2023-02-02T00:16:37.488Z,2.23
2023-02-02T00:19:08.014Z,2.70
2023-02-02T00:21:35.927Z,2.40
2023-02-02T00:24:08.719Z,3.03
2023-02-02T00:26:37.540Z,2.50
2023-02-02T00:29:06.872Z,2.33
2023-02-02T00:31:35.638Z,3.13
2023-02-02T00:34:03.627Z,3.60
2023-02-02T00:36:31.529Z,3.07
2023-02-02T00:39:22.547Z,3.20
2023-02-02T00:41:50.584Z,2.33
2023-02-02T00:44:35.811Z,3.13
2023-02-02T00:47:04.525Z,2.50
2023-02-02T00:49:32.763Z,3.83
2023-02-02T00:52:01.095Z,2.50
2023-02-02T00:54:30.648Z,2.40
2023-02-02T00:56:58.832Z,2.70
2023-02-02T00:59:26.890Z,2.37
2023-02-02T01:02:00.676Z,2.80
2023-02-02T01:04:28.714Z,2.23
2023-02-02T01:06:56.716Z,2.63
2023-02-02T01:09:30.545Z,3.17
2023-02-02T01:12:00.063Z,2.50
2023-02-02T01:14:28.218Z,3.20
2023-02-02T01:16:56.207Z,2.07
2023-02-02T01:19:24.172Z,2.70
2023-02-02T01:21:52.651Z,2.97
2023-02-02T01:24:20.509Z,2.93
2023-02-02T01:26:48.461Z,2.47
2023-02-02T01:29:18.303Z,2.40
2023-02-02T01:31:46.816Z,2.33
2023-02-02T01:34:14.863Z,2.90
2023-02-02T01:36:42.802Z,2.53
2023-02-02T01:39:10.919Z,2.80
2023-02-02T01:41:41.037Z,3.10
2023-02-02T01:44:42.264Z,2.60
2023-02-02T01:47:11.631Z,2.77
2023-02-02T01:49:41.244Z,2.73
2023-02-02T01:52:11.130Z,3.03
2023-02-02T01:54:43.128Z,2.87
2023-02-02T01:57:17.932Z,3.47
2023-02-02T01:59:48.616Z,3.10
2023-02-02T02:02:21.012Z,2.70
2023-02-02T02:04:51.132Z,2.43
2023-02-02T02:07:18.867Z,3.13
2023-02-02T02:09:47.151Z,1.80
2023-02-02T02:12:16.674Z,2.70
2023-02-02T02:15:05.596Z,3.37
2023-02-02T02:17:48.716Z,3.40
2023-02-02T02:21:07.290Z,2.70
2023-02-02T02:24:16.238Z,2.50
2023-02-02T02:26:58.684Z,3.20
2023-02-02T02:29:59.688Z,2.83
2023-02-02T02:32:41.434Z,3.40
2023-02-02T02:35:15.139Z,3.13
2023-02-02T02:37:49.002Z,3.10
2023-02-02T02:40:26.176Z,2.30
2023-02-02T02:45:23.231Z,3.23
2023-02-02T02:47:53.369Z,3.13
2023-02-02T02:50:21.561Z,3.07
2023-02-02T02:52:53.878Z,2.60
2023-02-02T02:55:21.940Z,3.10
2023-02-02T02:58:08.151Z,2.70
2023-02-02T03:00:49.641Z,2.17
2023-02-02T03:03:34.843Z,2.30
2023-02-02T03:06:08.399Z,3.43
2023-02-02T03:08:40.379Z,1.97
2023-02-02T03:11:09.718Z,2.60
2023-02-02T03:13:37.475Z,2.27
2023-02-02T03:16:05.702Z,2.70
2023-02-02T03:18:35.241Z,2.60
2023-02-02T03:21:03.125Z,3.23
2023-02-02T03:23:30.855Z,3.10
2023-02-02T03:25:59.611Z,3.03
2023-02-02T03:28:28.465Z,2.90
2023-02-02T03:30:57.359Z,2.30
2023-02-02T03:33:25.449Z,2.63
2023-02-02T03:35:54.678Z,2.47
2023-02-02T03:38:22.371Z,3.47
2023-02-02T03:40:51.423Z,3.27
2023-02-02T03:43:21.659Z,2.63
2023-02-02T03:45:49.470Z,3.33
2023-02-02T03:48:17.107Z,2.60
2023-02-02T03:50:44.754Z,2.10
2023-02-02T03:53:13.710Z,3.37
2023-02-02T03:55:42.124Z,2.80
2023-02-02T03:58:09.768Z,3.13
2023-02-02T04:00:37.652Z,2.83
2023-02-02T04:03:05.495Z,2.77
2023-02-02T04:05:33.314Z,3.47
2023-02-02T04:08:01.028Z,2.60
2023-02-02T04:10:30.034Z,2.97
2023-02-02T04:12:58.113Z,2.63
2023-02-02T04:15:26.128Z,2.80
2023-02-02T04:17:54.039Z,2.80
2023-02-02T04:20:21.700Z,3.33
2023-02-02T04:22:49.337Z,3.50
2023-02-02T04:25:17.049Z,3.37
2023-02-02T04:27:46.034Z,2.83
2023-02-02T04:30:13.897Z,2.53
2023-02-02T04:32:42.120Z,3.53
2023-02-02T04:35:10.107Z,3.23
2023-02-02T04:37:37.787Z,2.70
2023-02-02T04:40:06.203Z,3.57
2023-02-02T04:42:35.004Z,2.73
2023-02-02T04:45:04.413Z,2.67
2023-02-02T04:47:32.107Z,2.87
2023-02-02T04:49:59.765Z,3.33
2023-02-02T04:52:27.382Z,2.80
2023-02-02T04:54:55.019Z,3.53
2023-02-02T04:57:22.648Z,3.50
2023-02-02T04:59:50.291Z,3.17
2023-02-02T05:02:19.510Z,2.70
2023-02-02T05:04:47.564Z,3.30
2023-02-02T05:07:15.233Z,3.63
2023-02-02T05:09:42.949Z,4.47
2023-02-02T05:12:10.552Z,3.50
2023-02-02T05:14:38.249Z,3.03
2023-02-02T05:17:05.887Z,3.57
2023-02-02T05:19:34.955Z,2.93
2023-02-02T05:22:02.698Z,2.90
2023-02-02T05:24:30.328Z,2.90
2023-02-02T05:27:00.611Z,2.77
2023-02-02T05:29:28.510Z,3.00
2023-02-02T05:31:56.195Z,3.83
2023-02-02T05:34:24.225Z,2.77
2023-02-02T05:36:53.478Z,3.03
2023-02-02T05:39:21.111Z,3.50
2023-02-02T05:41:48.809Z,3.27
2023-02-02T05:44:16.722Z,3.13
2023-02-02T05:46:45.572Z,3.00
2023-02-02T05:49:14.876Z,2.93
2023-02-02T05:51:45.957Z,3.37
2023-02-02T05:54:19.314Z,3.40
2023-02-02T05:56:47.388Z,3.30
2023-02-02T05:59:15.433Z,3.90
2023-02-02T06:01:43.221Z,2.70
2023-02-02T06:04:11.265Z,3.30
2023-02-02T06:06:39.125Z,3.03
2023-02-02T06:09:07.894Z,3.03
2023-02-02T06:11:37.002Z,3.70
2023-02-02T06:14:04.666Z,4.00
2023-02-02T06:16:32.351Z,3.33
2023-02-02T06:19:00.015Z,2.97
2023-02-02T06:21:31.043Z,2.77
2023-02-02T06:23:59.482Z,2.67
2023-02-02T06:26:27.497Z,3.63
2023-02-02T06:28:56.594Z,3.07
2023-02-02T06:31:24.440Z,3.23
2023-02-02T06:33:55.464Z,2.73
2023-02-02T06:36:24.017Z,3.60
2023-02-02T06:38:52.440Z,3.10
2023-02-02T06:41:21.310Z,3.40
2023-02-02T06:43:49.830Z,2.93
2023-02-02T06:46:19.005Z,3.33
2023-02-02T06:48:46.820Z,3.10
2023-02-02T06:51:14.736Z,2.97
2023-02-02T06:53:42.365Z,3.00
2023-02-02T06:56:13.710Z,3.43
2023-02-02T06:58:41.662Z,3.37
2023-02-02T07:01:10.983Z,2.60
2023-02-02T07:03:40.485Z,3.47
2023-02-02T07:06:15.839Z,3.40
2023-02-02T07:08:43.856Z,3.40
2023-02-02T07:11:15.276Z,3.37
2023-02-02T07:13:44.377Z,2.97
2023-02-02T07:16:12.909Z,2.90
2023-02-02T07:18:43.901Z,3.30
2023-02-02T07:21:18.739Z,3.37
2023-02-02T07:23:47.134Z,3.10
2023-02-02T07:26:15.957Z,3.80
2023-02-02T07:28:43.985Z,3.83
2023-02-02T07:31:16.565Z,2.93
2023-02-02T07:33:47.167Z,3.90
2023-02-02T07:36:17.387Z,3.33
2023-02-02T07:38:45.793Z,3.17
2023-02-02T07:41:13.701Z,4.10
2023-02-02T07:43:41.496Z,3.00
2023-02-02T07:46:12.948Z,3.87
2023-02-02T07:48:40.789Z,3.63
2023-02-02T07:51:13.083Z,3.07
2023-02-02T07:53:44.940Z,3.70
2023-02-02T07:56:14.205Z,3.00
2023-02-02T07:58:42.349Z,3.37
2023-02-02T08:01:12.015Z,3.33
2023-02-02T08:03:40.529Z,3.73
2023-02-02T08:06:15.343Z,4.90
2023-02-02T08:08:43.257Z,3.53
2023-02-02T08:11:12.182Z,2.90
2023-02-02T08:13:41.045Z,3.33
2023-02-02T08:16:09.274Z,3.90
2023-02-02T08:18:38.382Z,3.40
2023-02-02T08:21:08.381Z,2.77
2023-02-02T08:23:37.894Z,4.10
2023-02-02T08:26:10.739Z,5.87
2023-02-02T08:28:38.795Z,3.80
2023-02-02T08:31:08.995Z,3.03
2023-02-02T08:33:38.555Z,3.30
2023-02-02T08:36:09.305Z,3.47
2023-02-02T08:38:38.304Z,3.47
2023-02-02T08:41:06.797Z,3.17
2023-02-02T08:43:35.127Z,3.70
2023-02-02T08:46:05.549Z,3.40
2023-02-02T08:48:35.035Z,3.40
2023-02-02T08:51:03.008Z,3.60
2023-02-02T08:53:31.176Z,3.83
2023-02-02T08:56:01.873Z,3.60
2023-02-02T08:58:29.937Z,3.70
2023-02-02T09:01:05.403Z,3.87
2023-02-02T09:03:33.101Z,3.73
2023-02-02T09:06:05.407Z,3.77
2023-02-02T09:08:34.115Z,3.73
2023-02-02T09:11:11.583Z,3.77
2023-02-02T09:13:40.393Z,3.73
2023-02-02T09:16:11.046Z,3.37
2023-02-02T09:18:38.829Z,3.20
2023-02-02T09:21:08.695Z,3.87
2023-02-02T09:23:38.615Z,3.50
2023-02-02T09:26:15.814Z,3.67
2023-02-02T09:28:45.455Z,3.40
2023-02-02T09:31:13.456Z,3.23
2023-02-02T09:33:41.850Z,3.03
2023-02-02T09:36:11.586Z,2.90
2023-02-02T09:38:40.309Z,2.87
2023-02-02T09:41:29.204Z,3.13
2023-02-02T09:44:05.992Z,2.50
2023-02-02T09:46:42.107Z,2.47
2023-02-02T09:49:14.488Z,2.37
2023-02-02T09:51:45.953Z,2.40
2023-02-02T09:54:20.757Z,2.43
2023-02-02T09:56:54.528Z,2.90
2023-02-02T09:59:25.639Z,2.20
2023-02-02T10:01:57.026Z,2.77
2023-02-02T10:04:28.371Z,2.60
2023-02-02T10:06:59.311Z,2.60
2023-02-02T10:09:32.483Z,1.93
2023-02-02T10:12:07.660Z,2.13
2023-02-02T10:14:42.087Z,2.00
2023-02-02T10:17:39.342Z,2.13
2023-02-02T10:20:18.459Z,2.03
2023-02-02T10:22:47.779Z,2.50
2023-02-02T10:25:16.891Z,2.10
2023-02-02T10:27:56.595Z,2.30
2023-02-02T10:30:30.218Z,2.00
2023-02-02T10:33:05.987Z,2.10
2023-02-02T10:35:40.321Z,2.00
2023-02-02T10:38:20.405Z,2.07
2023-02-02T10:40:57.825Z,2.27
2023-02-02T10:43:51.471Z,2.03
2023-02-02T10:46:23.662Z,2.10
2023-02-02T10:48:52.927Z,2.13
2023-02-02T10:51:25.400Z,2.23
2023-02-02T10:53:55.205Z,2.50
2023-02-02T10:56:29.541Z,2.33
2023-02-02T10:59:06.840Z,1.83
2023-02-02T11:01:34.733Z,2.47
2023-02-02T11:04:31.939Z,2.50
2023-02-02T11:07:01.600Z,2.10
2023-02-02T11:09:33.455Z,2.40
2023-02-02T11:12:07.865Z,2.07
2023-02-02T11:14:45.413Z,2.67
2023-02-02T11:17:21.333Z,2.53
2023-02-02T11:19:50.070Z,2.03
2023-02-02T11:22:30.663Z,1.90
2023-02-02T11:25:01.207Z,1.97
2023-02-02T11:27:32.536Z,2.17
2023-02-02T11:30:12.838Z,2.20
2023-02-02T11:32:41.458Z,3.10
2023-02-02T11:35:22.051Z,2.43
2023-02-02T11:38:02.233Z,2.33
2023-02-02T11:40:35.288Z,2.50
2023-02-02T11:43:06.133Z,2.33
2023-02-02T11:45:38.998Z,2.37
2023-02-02T11:48:15.135Z,2.13
2023-02-02T11:50:47.388Z,3.03
2023-02-02T11:53:24.288Z,2.23
2023-02-02T11:55:52.641Z,2.27
2023-02-02T11:58:27.627Z,2.07
2023-02-02T12:01:00.349Z,2.93
2023-02-02T12:03:34.386Z,2.20
2023-02-02T12:06:03.052Z,2.20
2023-02-02T12:08:31.429Z,2.53
2023-02-02T12:11:01.671Z,2.23
2023-02-02T12:13:46.537Z,2.03
2023-02-02T12:16:29.556Z,2.60
2023-02-02T12:19:20.033Z,3.83
2023-02-02T12:21:56.699Z,2.13
2023-02-02T12:24:32.334Z,2.80
2023-02-02T12:27:14.943Z,3.10
2023-02-02T12:29:54.716Z,2.37
2023-02-02T12:32:35.439Z,2.20
2023-02-02T12:35:22.976Z,2.50
2023-02-02T12:38:00.293Z,1.93
2023-02-02T12:40:42.976Z,2.43
2023-02-02T12:43:20.019Z,2.07
2023-02-02T12:46:10.783Z,2.30
2023-02-02T12:49:04.425Z,3.13
2023-02-02T12:51:46.983Z,2.00
2023-02-02T12:54:44.386Z,2.40
2023-02-02T12:57:22.043Z,2.80
2023-02-02T13:00:17.502Z,2.07
2023-02-02T13:02:59.667Z,2.57
2023-02-02T13:05:54.273Z,2.17
2023-02-02T13:08:26.376Z,2.63
2023-02-02T13:10:58.799Z,2.67
2023-02-02T13:13:30.093Z,2.53
2023-02-02T13:16:04.744Z,2.60
2023-02-02T13:18:37.118Z,2.47
2023-02-02T13:21:09.683Z,3.07
2023-02-02T13:23:40.612Z,2.73
2023-02-02T13:26:13.851Z,2.97
2023-02-02T13:28:46.213Z,2.93
2023-02-02T13:31:19.030Z,2.57
2023-02-02T13:33:50.787Z,2.80
2023-02-02T13:36:25.972Z,2.97
2023-02-02T13:38:56.934Z,2.67
2023-02-02T13:41:25.295Z,2.53
2023-02-02T13:44:01.032Z,2.70
2023-02-02T13:46:37.877Z,2.27
2023-02-02T13:49:10.804Z,2.87
2023-02-02T13:51:55.007Z,4.10
2023-02-02T13:54:58.011Z,3.27
2023-02-02T13:57:48.557Z,2.77
2023-02-02T14:00:18.598Z,2.67
2023-02-02T14:02:48.766Z,2.57
2023-02-02T14:05:25.911Z,2.87
2023-02-02T14:08:03.211Z,3.13
2023-02-02T14:10:35.801Z,3.60
2023-02-02T14:13:32.572Z,2.97
2023-02-02T14:16:03.024Z,3.40
2023-02-02T14:18:53.883Z,3.37
2023-02-02T14:21:57.898Z,3.17
2023-02-02T14:24:48.780Z,2.80
2023-02-02T14:28:02.651Z,3.27
2023-02-02T14:30:36.174Z,3.20
2023-02-02T14:33:39.878Z,3.50
2023-02-02T14:36:17.966Z,3.53
2023-02-02T14:39:05.441Z,3.10
2023-02-02T14:42:10.260Z,2.80
2023-02-02T14:44:38.594Z,2.90
2023-02-02T14:47:43.560Z,3.27
2023-02-02T14:50:15.225Z,2.87
2023-02-02T14:52:43.039Z,2.83
2023-02-02T14:55:19.876Z,3.83
2023-02-02T14:57:57.411Z,3.07
2023-02-02T15:00:29.390Z,3.33
2023-02-02T15:02:57.192Z,3.13
2023-02-02T15:05:43.785Z,2.80
2023-02-02T15:08:24.561Z,3.43
2023-02-02T15:11:27.909Z,2.70
2023-02-02T15:14:07.346Z,2.37
2023-02-02T15:16:38.605Z,3.23
2023-02-02T15:19:14.665Z,2.53
2023-02-02T15:21:43.759Z,2.83
2023-02-02T15:24:23.594Z,2.33
2023-02-02T15:26:54.537Z,2.73
2023-02-02T15:29:34.477Z,3.37
2023-02-02T15:32:04.058Z,3.43
2023-02-02T15:34:39.956Z,3.50
2023-02-02T15:37:09.516Z,3.20
2023-02-02T15:39:41.178Z,3.60
2023-02-02T15:42:34.975Z,2.60
2023-02-02T15:45:04.813Z,4.07
2023-02-02T15:47:36.934Z,2.73
2023-02-02T15:50:17.725Z,2.53
2023-02-02T15:52:48.634Z,3.00
2023-02-02T15:55:22.408Z,2.90
2023-02-02T15:57:54.239Z,2.93
2023-02-02T16:00:29.641Z,2.30
2023-02-02T16:03:03.562Z,2.70
2023-02-02T16:05:47.890Z,2.90
2023-02-02T16:08:20.014Z,2.80
2023-02-02T16:10:50.076Z,2.47
2023-02-02T16:13:27.629Z,3.10
2023-02-02T16:15:58.990Z,1.93
2023-02-02T16:18:26.853Z,2.57
2023-02-02T16:20:55.974Z,2.67
2023-02-02T16:23:27.297Z,3.20
2023-02-02T16:25:58.046Z,2.57
2023-02-02T16:28:26.866Z,2.40
2023-02-02T16:31:01.538Z,3.13
2023-02-02T16:33:38.351Z,3.37
2023-02-02T16:36:25.054Z,3.07
2023-02-02T16:38:55.254Z,2.50
2023-02-02T16:41:28.905Z,2.70
2023-02-02T16:43:57.290Z,3.00
2023-02-02T16:46:45.747Z,2.20
2023-02-02T16:49:19.494Z,2.27
2023-02-02T16:51:50.211Z,1.97
2023-02-02T16:54:21.454Z,2.57
2023-02-02T16:56:53.660Z,3.03
2023-02-02T16:59:25.566Z,3.30
2023-02-02T17:02:01.047Z,4.27
2023-02-02T17:04:34.082Z,3.07
2023-02-02T17:07:08.797Z,2.67
2023-02-02T17:09:38.065Z,2.83
2023-02-02T17:17:14.850Z,3.77
2023-02-02T17:19:49.302Z,2.53
2023-02-02T17:23:01.080Z,2.70
2023-02-02T17:25:32.548Z,2.87
2023-02-02T17:32:23.757Z,2.60
2023-02-02T17:38:56.805Z,4.03
2023-02-02T17:41:24.896Z,2.17
2023-02-02T17:43:52.815Z,2.70
2023-02-02T17:49:52.200Z,2.47
2023-02-02T17:52:20.435Z,2.50
2023-02-02T17:58:29.333Z,3.67
2023-02-02T18:00:59.241Z,2.17
2023-02-02T18:03:30.948Z,2.57
2023-02-02T18:06:01.680Z,3.30
2023-02-02T18:08:30.428Z,2.47
2023-02-02T18:11:00.697Z,2.37
2023-02-02T18:13:31.370Z,2.80
2023-02-02T18:16:00.062Z,3.50
2023-02-02T18:18:29.736Z,3.70
2023-02-02T18:20:59.078Z,2.70
2023-02-02T18:23:30.014Z,2.40
2023-02-02T18:26:12.163Z,4.17
2023-02-02T18:28:40.875Z,3.10
2023-02-02T18:31:10.601Z,3.43
2023-02-02T18:33:45.601Z,2.80
2023-02-02T18:36:27.783Z,3.20
2023-02-02T18:39:05.145Z,3.00
2023-02-02T18:41:35.153Z,2.40
2023-02-02T18:44:11.169Z,2.63
2023-02-02T18:47:01.923Z,3.20
2023-02-02T18:49:52.426Z,2.77
2023-02-02T18:52:42.983Z,2.83
2023-02-02T18:58:51.259Z,2.50
2023-02-02T19:01:56.749Z,3.13
2023-02-02T19:05:31.672Z,2.30
2023-02-02T19:11:42.057Z,2.50
2023-02-02T19:15:11.494Z,2.23
2023-02-02T19:17:39.163Z,1.70
2023-02-02T19:20:22.130Z,2.10
2023-02-02T19:22:52.369Z,1.80
2023-02-02T19:25:20.096Z,2.13
2023-02-02T19:27:47.811Z,2.50
2023-02-02T19:30:22.167Z,2.60
2023-02-02T19:32:50.005Z,2.20
2023-02-02T19:35:20.839Z,2.63
2023-02-02T19:37:50.342Z,2.17
2023-02-02T19:40:22.577Z,2.00
2023-02-02T19:42:55.153Z,2.00
2023-02-02T19:45:28.103Z,2.20
2023-02-02T19:47:57.946Z,2.00
2023-02-02T19:50:29.320Z,2.40
2023-02-02T19:52:57.490Z,2.23
2023-02-02T19:55:28.213Z,1.83
2023-02-02T19:58:03.001Z,2.13
2023-02-02T20:00:33.608Z,2.17
2023-02-02T20:03:05.372Z,1.83
2023-02-02T20:05:36.204Z,1.93
2023-02-02T20:08:13.588Z,1.50
2023-02-02T20:10:44.476Z,2.53
2023-02-02T20:13:19.575Z,2.47
2023-02-02T20:15:49.889Z,1.90
2023-02-02T20:18:20.958Z,1.87
2023-02-02T20:20:52.382Z,3.43
2023-02-02T20:23:29.812Z,1.80
2023-02-02T20:25:59.098Z,2.30
2023-02-02T20:28:41.494Z,1.60
2023-02-02T20:31:13.311Z,1.73
2023-02-02T20:33:43.114Z,1.90
2023-02-02T20:36:28.512Z,1.90
2023-02-02T20:38:56.423Z,1.60
2023-02-02T20:41:24.384Z,1.50
2023-02-02T20:43:52.116Z,1.70
2023-02-02T20:46:21.110Z,2.23
2023-02-02T20:48:49.098Z,1.60
2023-02-02T20:51:16.821Z,2.20
2023-02-02T20:53:44.540Z,2.30
2023-02-02T20:56:12.327Z,1.90
2023-02-02T20:58:40.334Z,2.00
2023-02-02T21:01:08.113Z,2.17
2023-02-02T21:03:37.140Z,2.47
2023-02-02T21:06:04.930Z,2.13
2023-02-02T21:08:32.602Z,2.50
2023-02-02T21:11:00.507Z,3.10
2023-02-02T21:13:28.159Z,3.23
2023-02-02T21:15:55.814Z,2.47
2023-02-02T21:18:23.502Z,3.30
2023-02-02T21:20:52.527Z,3.07
2023-02-02T21:23:21.591Z,2.70
2023-02-02T21:25:49.378Z,2.80
2023-02-02T21:28:17.144Z,3.20
2023-02-02T21:30:45.756Z,3.03
2023-02-02T21:33:13.516Z,3.17
2023-02-02T21:35:41.134Z,2.80
2023-02-02T21:38:14.849Z,2.97
2023-02-02T21:40:42.765Z,3.00
2023-02-02T21:43:15.856Z,3.00
2023-02-02T21:45:44.819Z,3.13
2023-02-02T21:48:27.527Z,2.50
2023-02-02T21:50:55.169Z,2.70
2023-02-02T21:53:25.937Z,2.77
2023-02-02T21:55:54.935Z,2.60
2023-02-02T21:58:25.854Z,2.80
2023-02-02T22:00:54.462Z,2.47
2023-02-02T22:03:33.774Z,2.90
2023-02-02T22:06:16.313Z,2.87
2023-02-02T22:08:45.325Z,2.50
2023-02-02T22:11:23.321Z,3.10
2023-02-02T22:13:51.026Z,3.17
2023-02-02T22:16:21.417Z,3.20
2023-02-02T22:18:49.139Z,2.97
2023-02-02T22:21:20.890Z,3.30
2023-02-02T22:23:50.236Z,4.20
2023-02-02T22:26:30.379Z,3.50
2023-02-02T22:28:58.065Z,3.97
2023-02-02T22:31:25.869Z,4.23
2023-02-02T22:33:53.614Z,4.40
2023-02-02T22:36:21.290Z,4.57
2023-02-02T22:38:50.284Z,4.70
2023-02-02T22:41:18.022Z,5.10
2023-02-02T22:43:45.661Z,5.00
2023-02-02T22:46:13.302Z,5.03
2023-02-02T22:48:40.972Z,5.60
2023-02-02T22:51:08.993Z,5.43
2023-02-02T22:53:36.629Z,5.07
2023-02-02T22:56:06.577Z,5.43
2023-02-02T22:58:34.186Z,6.03
2023-02-02T23:01:01.847Z,5.40
2023-02-02T23:03:29.511Z,6.33
2023-02-02T23:05:57.204Z,5.90
2023-02-02T23:08:24.853Z,5.80
2023-02-02T23:10:52.540Z,6.43
2023-02-02T23:13:21.536Z,6.50
2023-02-02T23:15:49.248Z,6.60
2023-02-02T23:18:16.923Z,6.50
2023-02-02T23:20:47.929Z,6.63
2023-02-02T23:23:15.569Z,7.60
2023-02-02T23:25:43.182Z,7.07
2023-02-02T23:28:10.952Z,7.30
2023-02-02T23:30:40.073Z,7.27
2023-02-02T23:33:07.794Z,7.47
2023-02-02T23:35:35.423Z,7.47
2023-02-02T23:38:03.076Z,7.57
2023-02-02T23:40:30.722Z,7.90
2023-02-02T23:42:58.367Z,7.83
2023-02-02T23:45:26.056Z,8.03
2023-02-02T23:47:55.077Z,7.60
2023-02-02T23:50:22.765Z,9.33
2023-02-02T23:52:50.455Z,9.87
2023-02-02T23:55:18.193Z,9.97
2023-02-02T23:57:45.948Z,10.77
